createdAt,value
2018-09-12T00:02:26.486Z,101327.81
2018-09-12T00:04:55.424Z,101326.33
2018-09-12T00:07:24.439Z,101316.95
2018-09-12T00:09:53.488Z,101318.29
2018-09-12T00:12:22.473Z,101321.13
2018-09-12T00:14:51.568Z,101322.55
2018-09-12T00:17:20.805Z,101319.97
2018-09-12T00:19:49.765Z,101311.33
2018-09-12T00:22:18.942Z,101311.73
2018-09-12T00:24:47.927Z,101314.55
2018-09-12T00:27:16.981Z,101311.77
2018-09-12T00:29:46.026Z,101308.37
2018-09-12T00:32:14.976Z,101310.87
2018-09-12T00:34:44.068Z,101316.45
2018-09-12T00:37:13.036Z,101312.89
2018-09-12T00:39:42.040Z,101312.69
2018-09-12T00:42:11.046Z,101309.90
2018-09-12T00:44:40.064Z,101312.63
2018-09-12T00:47:09.046Z,101312.09
2018-09-12T00:49:38.346Z,101310.25
2018-09-12T00:52:07.313Z,101306.77
2018-09-12T00:54:36.269Z,101309.80
2018-09-12T00:57:05.417Z,101304.81
2018-09-12T00:59:34.516Z,101302.31
2018-09-12T01:02:03.464Z,101298.17
2018-09-12T01:04:32.523Z,101302.64
2018-09-12T01:07:01.567Z,101293.61
2018-09-12T01:09:30.566Z,101301.28
2018-09-12T01:11:59.507Z,101293.92
2018-09-12T01:14:31.470Z,101299.51
2018-09-12T01:17:00.709Z,101292.17
2018-09-12T01:19:30.895Z,101296.67
2018-09-12T01:21:59.907Z,101296.97
2018-09-12T01:24:29.038Z,101300.38
2018-09-12T01:26:58.059Z,101296.27
2018-09-12T01:29:27.945Z,101292.25
2018-09-12T01:31:56.958Z,101295.48
2018-09-12T01:34:26.049Z,101292.38
2018-09-12T01:36:55.040Z,101293.09
2018-09-12T01:39:24.023Z,101291.97
2018-09-12T01:41:53.186Z,101292.61
2018-09-12T01:44:22.179Z,101294.54
2018-09-12T01:46:51.243Z,101290.02
2018-09-12T01:49:20.320Z,101291.92
2018-09-12T01:51:49.987Z,101291.09
2018-09-12T01:54:19.556Z,101293.98
2018-09-12T01:56:48.579Z,101282.88
2018-09-12T01:59:17.601Z,101286.28
2018-09-12T02:01:46.671Z,101285.17
2018-09-12T02:04:15.698Z,101290.34
2018-09-12T02:06:44.661Z,101290.03
2018-09-12T02:09:15.018Z,101289.71
2018-09-12T02:11:43.992Z,101286.15
2018-09-12T02:14:28.123Z,101289.13
2018-09-12T02:19:49.702Z,101302.48
2018-09-12T02:22:18.761Z,101304.55
2018-09-12T02:24:47.711Z,101309.19
2018-09-12T02:27:16.737Z,101306.44
2018-09-12T02:29:45.755Z,101319.01
2018-09-12T02:32:14.709Z,101313.89
2018-09-12T02:34:43.686Z,101310.81
2018-09-12T02:37:12.618Z,101307.17
2018-09-12T02:39:58.083Z,101305.96
2018-09-12T02:42:49.697Z,101318.73
2018-09-12T02:45:19.740Z,101309.05
2018-09-12T02:47:48.720Z,101309.20
2018-09-12T02:50:17.743Z,101315.94
2018-09-12T02:52:46.707Z,101313.22
2018-09-12T02:55:15.679Z,101328.54
2018-09-12T02:57:44.635Z,101317.12
2018-09-12T03:00:13.578Z,101310.48
2018-09-12T03:02:42.603Z,101310.36
2018-09-12T03:05:11.718Z,101306.88
2018-09-12T03:07:40.752Z,101307.45
2018-09-12T03:10:09.852Z,101304.29
2018-09-12T03:12:38.957Z,101293.66
2018-09-12T03:15:07.958Z,101289.69
2018-09-12T03:17:36.921Z,101282.42
2018-09-12T03:20:05.925Z,101288.55
2018-09-12T03:22:34.835Z,101292.19
2018-09-12T03:25:03.801Z,101296.12
2018-09-12T03:27:32.833Z,101292.95
2018-09-12T03:30:01.947Z,101297.47
2018-09-12T03:32:30.840Z,101294.30
2018-09-12T03:34:59.883Z,101293.52
2018-09-12T03:37:28.911Z,101290.11
2018-09-12T03:39:57.849Z,101299.28
2018-09-12T03:42:26.791Z,101290.20
2018-09-12T03:44:55.752Z,101297.36
2018-09-12T03:47:24.715Z,101299.13
2018-09-12T03:49:53.699Z,101293.47
2018-09-12T03:52:22.694Z,101290.78
2018-09-12T03:54:51.642Z,101289.36
2018-09-12T03:57:21.443Z,101293.63
2018-09-12T03:59:50.429Z,101288.09
2018-09-12T04:02:19.380Z,101284.80
2018-09-12T04:04:48.510Z,101285.59
2018-09-12T04:07:17.484Z,101286.20
2018-09-12T04:09:46.410Z,101289.97
2018-09-12T04:12:15.677Z,101290.86
2018-09-12T04:14:44.633Z,101298.47
2018-09-12T04:17:13.630Z,101296.81
2018-09-12T04:19:42.585Z,101297.97
2018-09-12T04:22:11.542Z,101304.52
2018-09-12T04:24:40.589Z,101308.84
2018-09-12T04:27:09.564Z,101314.78
2018-09-12T04:29:38.487Z,101311.84
2018-09-12T04:32:07.530Z,101313.81
2018-09-12T04:34:36.559Z,101315.15
2018-09-12T04:37:05.582Z,101319.17
2018-09-12T04:39:34.569Z,101323.73
2018-09-12T04:42:03.551Z,101327.36
2018-09-12T04:44:32.474Z,101317.52
2018-09-12T04:47:01.437Z,101321.36
2018-09-12T04:49:30.493Z,101320.52
2018-09-12T04:51:59.446Z,101324.82
2018-09-12T04:54:28.341Z,101328.37
2018-09-12T04:56:57.369Z,101328.42
2018-09-12T04:59:26.340Z,101329.52
2018-09-12T05:01:55.344Z,101331.64
2018-09-12T05:04:24.353Z,101324.95
2018-09-12T05:06:53.316Z,101328.63
2018-09-12T05:09:22.291Z,101335.79
2018-09-12T05:11:51.265Z,101324.66
2018-09-12T05:14:20.187Z,101349.38
2018-09-12T05:16:49.192Z,101332.77
2018-09-12T05:19:18.124Z,101338.52
2018-09-12T05:21:47.193Z,101315.39
2018-09-12T05:24:16.169Z,101320.50
2018-09-12T05:26:45.161Z,101316.15
2018-09-12T05:29:14.095Z,101321.04
2018-09-12T05:31:43.108Z,101336.62
2018-09-12T05:34:12.132Z,101339.11
2018-09-12T05:36:41.122Z,101343.18
2018-09-12T05:39:10.901Z,101326.55
2018-09-12T05:41:40.276Z,101339.38
2018-09-12T05:44:09.366Z,101346.75
2018-09-12T05:46:39.714Z,101351.36
2018-09-12T05:49:09.790Z,101360.88
2018-09-12T05:51:38.802Z,101358.69
2018-09-12T05:54:07.780Z,101353.52
2018-09-12T05:56:36.702Z,101351.64
2018-09-12T05:59:05.861Z,101344.86
2018-09-12T06:01:34.825Z,101352.45
2018-09-12T06:04:03.851Z,101347.84
2018-09-12T06:06:33.004Z,101342.41
2018-09-12T06:09:01.903Z,101356.27
2018-09-12T06:11:30.956Z,101348.33
2018-09-12T06:14:00.374Z,101346.19
2018-09-12T06:16:29.390Z,101339.36
2018-09-12T06:18:58.614Z,101343.72
2018-09-12T06:21:27.602Z,101343.73
2018-09-12T06:23:56.615Z,101342.41
2018-09-12T06:26:25.604Z,101349.16
2018-09-12T06:28:54.551Z,101355.44
2018-09-12T06:31:23.527Z,101360.08
2018-09-12T06:33:52.623Z,101358.16
2018-09-12T06:36:21.659Z,101360.61
2018-09-12T06:38:50.626Z,101369.59
2018-09-12T06:41:19.625Z,101381.44
2018-09-12T06:43:49.062Z,101379.08
2018-09-12T06:46:18.076Z,101374.20
2018-09-12T06:48:47.005Z,101378.48
2018-09-12T06:51:16.052Z,101372.00
2018-09-12T06:53:45.069Z,101369.83
2018-09-12T06:56:14.363Z,101372.53
2018-09-12T06:58:43.352Z,101375.00
2018-09-12T07:01:12.374Z,101370.95
2018-09-12T07:03:41.344Z,101388.36
2018-09-12T07:06:10.531Z,101392.66
2018-09-12T07:08:39.452Z,101399.77
2018-09-12T07:11:08.402Z,101404.31
2018-09-12T07:13:37.385Z,101396.18
2018-09-12T07:16:06.401Z,101395.05
2018-09-12T07:18:35.412Z,101391.53
2018-09-12T07:21:04.547Z,101401.04
2018-09-12T07:23:33.496Z,101391.20
2018-09-12T07:26:03.159Z,101378.44
2018-09-12T07:28:32.143Z,101381.17
2018-09-12T07:31:01.171Z,101390.16
2018-09-12T07:33:30.150Z,101393.76
2018-09-12T07:35:59.128Z,101396.14
2018-09-12T07:38:28.103Z,101394.30
2018-09-12T07:40:57.105Z,101398.63
2018-09-12T07:43:26.077Z,101390.74
2018-09-12T07:45:55.099Z,101391.61
2018-09-12T07:48:24.054Z,101384.78
2018-09-12T07:50:53.020Z,101391.08
2018-09-12T07:53:22.003Z,101398.36
2018-09-12T07:55:51.034Z,101395.91
2018-09-12T07:58:20.051Z,101398.67
2018-09-12T08:00:49.012Z,101404.64
2018-09-12T08:03:17.977Z,101407.66
2018-09-12T08:05:47.158Z,101405.21
2018-09-12T08:08:16.048Z,101412.01
2018-09-12T08:10:45.044Z,101403.80
2018-09-12T08:13:14.120Z,101404.88
2018-09-12T08:15:43.075Z,101404.38
2018-09-12T08:18:11.990Z,101401.32
2018-09-12T08:20:40.960Z,101406.23
2018-09-12T08:23:10.094Z,101402.91
2018-09-12T08:25:39.080Z,101417.64
2018-09-12T08:28:08.061Z,101427.75
2018-09-12T08:30:37.108Z,101424.45
2018-09-12T08:33:06.354Z,101417.91
2018-09-12T08:35:35.292Z,101432.05
2018-09-12T08:38:04.341Z,101436.64
2018-09-12T08:40:33.371Z,101443.89
2018-09-12T08:43:02.333Z,101451.78
2018-09-12T08:45:31.325Z,101449.41
2018-09-12T08:48:00.283Z,101455.95
2018-09-12T08:50:29.280Z,101450.78
2018-09-12T08:52:58.242Z,101459.73
2018-09-12T08:55:27.233Z,101461.64
2018-09-12T08:57:56.281Z,101461.96
2018-09-12T09:00:34.423Z,101467.14
2018-09-12T09:03:04.538Z,101471.54
2018-09-12T09:05:33.525Z,101478.77
2018-09-12T09:08:02.552Z,101477.92
2018-09-12T09:10:31.552Z,101476.59
2018-09-12T09:13:00.591Z,101474.64
2018-09-12T09:15:29.515Z,101482.61
2018-09-12T09:17:58.487Z,101488.00
2018-09-12T09:20:27.468Z,101500.93
2018-09-12T09:22:56.573Z,101501.32
2018-09-12T09:25:25.555Z,101504.84
2018-09-12T09:27:54.632Z,101504.47
2018-09-12T09:30:28.077Z,101500.41
2018-09-12T09:32:57.065Z,101514.78
2018-09-12T09:35:26.076Z,101507.74
2018-09-12T09:37:55.194Z,101508.12
2018-09-12T09:40:24.206Z,101511.86
2018-09-12T09:42:53.283Z,101506.62
2018-09-12T09:45:22.270Z,101504.18
2018-09-12T09:47:51.375Z,101505.06
2018-09-12T09:50:20.392Z,101505.30
2018-09-12T09:52:49.342Z,101503.47
2018-09-12T09:55:18.324Z,101495.31
2018-09-12T09:57:47.274Z,101494.31
2018-09-12T10:01:20.116Z,101498.66
2018-09-12T10:03:54.422Z,101497.81
2018-09-12T10:06:32.694Z,101498.28
2018-09-12T10:09:05.862Z,101506.44
2018-09-12T10:11:34.804Z,101508.98
2018-09-12T10:14:03.850Z,101508.23
2018-09-12T10:16:32.886Z,101504.09
2018-09-12T10:19:01.862Z,101503.09
2018-09-12T10:21:30.849Z,101504.39
2018-09-12T10:23:59.837Z,101507.45
2018-09-12T10:26:28.804Z,101511.27
2018-09-12T10:28:57.882Z,101513.70
2018-09-12T10:31:26.841Z,101527.30
2018-09-12T10:33:55.797Z,101520.69
2018-09-12T10:36:24.779Z,101518.58
2018-09-12T10:38:53.751Z,101524.87
2018-09-12T10:41:22.730Z,101522.38
2018-09-12T10:43:52.488Z,101538.70
2018-09-12T10:46:21.479Z,101529.34
2018-09-12T10:48:50.449Z,101531.11
2018-09-12T10:51:19.441Z,101524.09
2018-09-12T10:53:48.399Z,101521.85
2018-09-12T10:56:17.541Z,101526.80
2018-09-12T10:58:46.496Z,101528.39
2018-09-12T11:01:15.548Z,101532.03
2018-09-12T11:03:44.533Z,101526.94
2018-09-12T11:06:13.477Z,101531.38
2018-09-12T11:08:42.534Z,101524.87
2018-09-12T11:11:11.443Z,101533.74
2018-09-12T11:13:40.399Z,101529.34
2018-09-12T11:16:09.601Z,101525.70
2018-09-12T11:18:38.588Z,101535.49
2018-09-12T11:21:07.513Z,101539.27
2018-09-12T11:23:36.482Z,101546.08
2018-09-12T11:26:05.433Z,101547.97
2018-09-12T11:28:34.358Z,101549.84
2018-09-12T11:31:03.456Z,101538.91
2018-09-12T11:33:32.605Z,101540.92
2018-09-12T11:36:02.295Z,101540.67
2018-09-12T11:38:31.282Z,101550.21
2018-09-12T11:41:00.248Z,101542.82
2018-09-12T11:43:29.248Z,101550.64
2018-09-12T11:45:58.314Z,101550.95
2018-09-12T11:48:27.291Z,101549.92
2018-09-12T11:50:56.256Z,101550.95
2018-09-12T11:53:25.234Z,101548.00
2018-09-12T11:55:54.794Z,101557.25
2018-09-12T11:58:23.777Z,101564.58
2018-09-12T12:00:52.805Z,101555.05
2018-09-12T12:03:21.848Z,101549.59
2018-09-12T12:05:50.921Z,101551.75
2018-09-12T12:08:19.924Z,101555.37
2018-09-12T12:10:48.862Z,101565.93
2018-09-12T12:13:17.988Z,101576.52
2018-09-12T12:15:47.278Z,101562.39
2018-09-12T12:18:16.541Z,101574.23
2018-09-12T12:20:45.506Z,101577.33
2018-09-12T12:23:14.558Z,101587.78
2018-09-12T12:25:43.507Z,101585.87
2018-09-12T12:28:12.468Z,101594.62
2018-09-12T12:30:41.438Z,101606.93
2018-09-12T12:33:10.435Z,101598.23
2018-09-12T12:35:39.441Z,101598.07
2018-09-12T12:38:08.397Z,101597.34
2018-09-12T12:40:37.618Z,101582.02
2018-09-12T12:43:06.661Z,101580.45
2018-09-12T12:45:35.617Z,101584.70
2018-09-12T12:48:04.785Z,101594.98
2018-09-12T12:50:33.836Z,101599.92
2018-09-12T12:53:02.813Z,101597.70
2018-09-12T12:55:31.812Z,101595.87
2018-09-12T12:58:00.804Z,101602.79
2018-09-12T13:00:29.757Z,101605.62
2018-09-12T13:02:58.787Z,101616.16
2018-09-12T13:05:27.897Z,101619.38
2018-09-12T13:07:56.811Z,101619.77
2018-09-12T13:10:26.039Z,101607.42
2018-09-12T13:12:55.012Z,101609.86
2018-09-12T13:15:23.999Z,101610.13
2018-09-12T13:17:52.972Z,101604.52
2018-09-12T13:20:21.955Z,101607.48
2018-09-12T13:22:51.013Z,101610.55
2018-09-12T13:25:19.931Z,101614.62
2018-09-12T13:27:49.099Z,101613.28
2018-09-12T13:30:18.035Z,101610.34
2018-09-12T13:32:46.985Z,101607.22
2018-09-12T13:35:15.973Z,101601.49
2018-09-12T13:37:44.977Z,101600.45
2018-09-12T13:40:13.954Z,101602.64
2018-09-12T13:42:42.960Z,101607.03
2018-09-12T13:45:12.134Z,101609.89
2018-09-12T13:47:41.609Z,101609.15
2018-09-12T13:50:13.396Z,101617.31
2018-09-12T13:52:42.403Z,101615.95
2018-09-12T13:55:11.458Z,101619.03
2018-09-12T13:57:40.398Z,101617.84
2018-09-12T14:00:09.452Z,101624.59
2018-09-12T14:02:38.407Z,101627.70
2018-09-12T14:05:07.693Z,101630.34
2018-09-12T14:07:36.745Z,101619.55
2018-09-12T14:10:06.055Z,101625.28
2018-09-12T14:12:35.053Z,101625.47
2018-09-12T14:15:04.044Z,101623.61
2018-09-12T14:17:32.982Z,101624.80
2018-09-12T14:20:02.008Z,101626.31
2018-09-12T14:22:31.161Z,101630.42
2018-09-12T14:25:00.208Z,101639.55
2018-09-12T14:27:29.211Z,101633.31
2018-09-12T14:29:58.219Z,101635.19
2018-09-12T14:32:27.262Z,101633.48
2018-09-12T14:34:56.216Z,101638.73
2018-09-12T14:37:25.361Z,101632.25
2018-09-12T14:39:54.250Z,101644.44
2018-09-12T14:42:23.228Z,101640.98
2018-09-12T14:44:52.228Z,101640.14
2018-09-12T14:47:21.224Z,101631.95
2018-09-12T14:49:50.153Z,101641.83
2018-09-12T14:52:19.402Z,101633.64
2018-09-12T14:54:48.346Z,101640.72
2018-09-12T14:57:17.303Z,101638.76
2018-09-12T14:59:46.351Z,101638.50
2018-09-12T15:02:15.378Z,101646.33
2018-09-12T15:04:44.404Z,101649.41
2018-09-12T15:07:13.372Z,101648.97
2018-09-12T15:09:42.313Z,101647.69
2018-09-12T15:12:11.292Z,101653.13
2018-09-12T15:14:40.277Z,101651.75
2018-09-12T15:17:09.237Z,101659.36
2018-09-12T15:19:38.174Z,101659.16
2018-09-12T15:22:07.289Z,101664.81
2018-09-12T15:24:36.234Z,101674.98
2018-09-12T15:27:05.308Z,101678.39
2018-09-12T15:29:34.280Z,101696.41
2018-09-12T15:32:03.248Z,101696.91
2018-09-12T15:34:32.267Z,101683.59
2018-09-12T15:37:01.299Z,101678.91
2018-09-12T15:39:30.298Z,101689.76
2018-09-12T15:41:59.455Z,101674.13
2018-09-12T15:44:28.430Z,101673.38
2018-09-12T15:46:57.365Z,101675.25
2018-09-12T15:49:26.366Z,101678.27
2018-09-12T15:51:55.319Z,101677.66
2018-09-12T15:54:24.430Z,101676.00
2018-09-12T15:56:53.468Z,101670.03
2018-09-12T15:59:22.468Z,101672.27
2018-09-12T16:01:51.445Z,101672.31
2018-09-12T16:04:20.430Z,101682.13
2018-09-12T16:06:49.398Z,101682.40
2018-09-12T16:09:18.406Z,101681.10
2018-09-12T16:11:47.391Z,101689.05
2018-09-12T16:14:16.395Z,101693.84
2018-09-12T16:16:45.490Z,101695.98
2018-09-12T16:19:14.471Z,101691.56
2018-09-12T16:21:43.519Z,101690.48
2018-09-12T16:24:12.508Z,101683.78
2018-09-12T16:26:41.491Z,101692.98
2018-09-12T16:29:10.496Z,101695.47
2018-09-12T16:31:39.536Z,101695.17
2018-09-12T16:34:08.609Z,101693.02
2018-09-12T16:36:37.642Z,101687.83
2018-09-12T16:39:09.878Z,101694.00
2018-09-12T16:41:38.831Z,101690.73
2018-09-12T16:44:07.817Z,101695.80
2018-09-12T16:46:36.869Z,101690.05
2018-09-12T16:49:06.019Z,101699.93
2018-09-12T16:51:35.784Z,101700.16
2018-09-12T16:54:04.878Z,101706.99
2018-09-12T16:56:33.956Z,101703.55
2018-09-12T16:59:03.171Z,101702.86
2018-09-12T17:01:32.660Z,101694.70
2018-09-12T17:04:01.677Z,101698.25
2018-09-12T17:06:30.711Z,101704.45
2018-09-12T17:08:59.725Z,101694.94
2018-09-12T17:11:28.766Z,101689.80
2018-09-12T17:13:57.868Z,101688.13
2018-09-12T17:16:26.867Z,101694.45
2018-09-12T17:18:55.880Z,101696.41
2018-09-12T17:21:24.847Z,101691.20
2018-09-12T17:23:53.892Z,101692.98
2018-09-12T17:26:22.974Z,101700.39
2018-09-12T17:28:51.992Z,101705.27
2018-09-12T17:31:21.000Z,101705.23
2018-09-12T17:33:50.014Z,101700.84
2018-09-12T17:36:18.981Z,101699.45
2018-09-12T17:38:48.063Z,101702.26
2018-09-12T17:41:17.068Z,101709.09
2018-09-12T17:43:46.064Z,101712.02
2018-09-12T17:46:15.051Z,101713.72
2018-09-12T17:48:44.055Z,101721.14
2018-09-12T17:51:13.097Z,101723.20
2018-09-12T17:53:42.065Z,101717.56
2018-09-12T17:56:12.124Z,101726.03
2018-09-12T17:58:41.120Z,101731.92
2018-09-12T18:01:10.401Z,101742.37
2018-09-12T18:03:39.387Z,101754.91
2018-09-12T18:06:08.381Z,101755.95
2018-09-12T18:08:37.382Z,101751.37
2018-09-12T18:11:06.388Z,101750.23
2018-09-12T18:13:35.426Z,101750.28
2018-09-12T18:16:04.374Z,101740.81
2018-09-12T18:18:33.436Z,101738.85
2018-09-12T18:21:02.454Z,101737.80
2018-09-12T18:23:31.643Z,101743.95
2018-09-12T18:26:00.677Z,101744.28
2018-09-12T18:28:29.665Z,101745.11
2018-09-12T18:30:58.758Z,101758.07
2018-09-12T18:33:27.791Z,101759.37
2018-09-12T18:35:56.881Z,101753.24
2018-09-12T18:38:25.896Z,101754.36
2018-09-12T18:40:54.995Z,101757.42
2018-09-12T18:43:24.045Z,101753.20
2018-09-12T18:45:53.082Z,101758.75
2018-09-12T18:48:22.088Z,101759.18
2018-09-12T18:50:51.164Z,101761.00
2018-09-12T18:53:20.193Z,101769.58
2018-09-12T18:55:49.240Z,101770.84
2018-09-12T18:58:18.285Z,101775.55
2018-09-12T19:00:47.331Z,101774.05
2018-09-12T19:03:16.345Z,101770.11
2018-09-12T19:05:46.455Z,101765.16
2018-09-12T19:08:15.560Z,101773.70
2018-09-12T19:10:44.622Z,101767.51
2018-09-12T19:13:13.939Z,101773.80
2018-09-12T19:15:43.078Z,101771.61
2018-09-12T19:18:12.103Z,101785.81
2018-09-12T19:20:41.143Z,101776.17
2018-09-12T19:23:10.219Z,101770.16
2018-09-12T19:25:39.204Z,101777.31
2018-09-12T19:28:10.213Z,101778.48
2018-09-12T19:30:39.246Z,101771.95
2018-09-12T19:33:08.304Z,101762.80
2018-09-12T19:35:37.453Z,101768.56
2018-09-12T19:38:06.427Z,101761.16
2018-09-12T19:40:35.576Z,101771.08
2018-09-12T19:43:04.682Z,101772.77
2018-09-12T19:45:33.694Z,101773.87
2018-09-12T19:48:02.974Z,101769.95
2018-09-12T19:50:32.018Z,101763.91
2018-09-12T19:53:01.058Z,101762.48
2018-09-12T19:55:30.164Z,101770.02
2018-09-12T19:57:59.582Z,101772.75
2018-09-12T20:00:28.767Z,101769.48
2018-09-12T20:02:57.953Z,101774.54
2018-09-12T20:05:26.974Z,101774.38
2018-09-12T20:07:56.091Z,101774.83
2018-09-12T20:10:25.189Z,101777.02
2018-09-12T20:12:54.238Z,101774.20
2018-09-12T20:15:23.319Z,101773.70
2018-09-12T20:17:52.377Z,101772.31
2018-09-12T20:20:21.659Z,101783.80
2018-09-12T20:22:50.636Z,101779.66
2018-09-12T20:25:19.615Z,101778.09
2018-09-12T20:27:48.711Z,101774.48
2018-09-12T20:30:18.435Z,101772.28
2018-09-12T20:32:47.436Z,101775.06
2018-09-12T20:35:16.553Z,101775.16
2018-09-12T20:37:45.589Z,101766.09
2018-09-12T20:40:14.597Z,101764.67
2018-09-12T20:42:43.605Z,101766.83
2018-09-12T20:45:12.562Z,101764.82
2018-09-12T20:47:41.659Z,101771.17
2018-09-12T20:50:10.713Z,101772.31
2018-09-12T20:52:39.663Z,101773.67
2018-09-12T20:55:08.704Z,101778.58
2018-09-12T20:57:37.866Z,101778.45
2018-09-12T21:00:07.073Z,101769.48
2018-09-12T21:02:36.257Z,101767.14
2018-09-12T21:05:05.298Z,101772.22
2018-09-12T21:07:34.320Z,101775.95
2018-09-12T21:10:03.330Z,101774.66
2018-09-12T21:12:32.323Z,101781.65
2018-09-12T21:15:01.302Z,101787.11
2018-09-12T21:17:30.391Z,101783.56
2018-09-12T21:19:59.415Z,101793.40
2018-09-12T21:22:28.362Z,101782.37
2018-09-12T21:24:57.390Z,101784.98
2018-09-12T21:27:26.388Z,101780.92
2018-09-12T21:29:55.628Z,101785.16
2018-09-12T21:32:24.621Z,101791.34
2018-09-12T21:34:53.590Z,101799.14
2018-09-12T21:37:22.565Z,101797.02
2018-09-12T21:39:51.512Z,101801.88
2018-09-12T21:42:20.530Z,101797.84
2018-09-12T21:44:49.530Z,101793.33
2018-09-12T21:47:18.500Z,101805.04
2018-09-12T21:49:47.579Z,101798.16
2018-09-12T21:52:16.551Z,101789.85
2018-09-12T21:54:45.605Z,101789.61
2018-09-12T21:57:14.568Z,101793.02
2018-09-12T21:59:43.573Z,101796.83
2018-09-12T22:02:12.560Z,101803.92
2018-09-12T22:04:41.543Z,101801.27
2018-09-12T22:07:10.621Z,101793.36
2018-09-12T22:09:39.597Z,101794.09
2018-09-12T22:12:08.590Z,101793.05
2018-09-12T22:14:37.630Z,101798.36
2018-09-12T22:17:06.634Z,101789.30
2018-09-12T22:19:35.762Z,101784.03
2018-09-12T22:22:04.735Z,101780.36
2018-09-12T22:24:36.082Z,101789.61
2018-09-12T22:27:06.692Z,101795.15
2018-09-12T22:29:36.032Z,101792.88
2018-09-12T22:32:07.648Z,101792.16
2018-09-12T22:34:40.645Z,101787.70
2018-09-12T22:37:09.958Z,101777.14
2018-09-12T22:39:39.124Z,101778.46
2018-09-12T22:42:08.197Z,101788.06
2018-09-12T22:44:37.196Z,101783.09
2018-09-12T22:47:06.196Z,101785.91
2018-09-12T22:49:35.211Z,101782.87
2018-09-12T22:52:04.196Z,101778.30
2018-09-12T22:54:33.153Z,101780.91
2018-09-12T22:57:02.131Z,101786.44
2018-09-12T22:59:31.136Z,101800.17
2018-09-12T23:02:00.108Z,101801.25
2018-09-12T23:04:29.107Z,101796.03
2018-09-12T23:06:58.406Z,101799.17
2018-09-12T23:09:27.441Z,101796.66
2018-09-12T23:11:56.419Z,101795.53
2018-09-12T23:14:25.421Z,101788.69
2018-09-12T23:16:54.392Z,101790.25
2018-09-12T23:19:23.400Z,101793.52
2018-09-12T23:21:52.471Z,101793.36
2018-09-12T23:24:21.532Z,101803.72
2018-09-12T23:26:50.567Z,101794.04
2018-09-12T23:29:19.556Z,101797.06
2018-09-12T23:31:48.599Z,101794.08
2018-09-12T23:34:17.581Z,101798.34
2018-09-12T23:36:46.550Z,101803.68
2018-09-12T23:39:15.554Z,101803.80
2018-09-12T23:41:44.542Z,101806.11
2018-09-12T23:44:13.545Z,101813.55
2018-09-12T23:46:42.517Z,101814.88
2018-09-12T23:49:11.551Z,101811.67
2018-09-12T23:51:40.545Z,101805.25
2018-09-12T23:54:09.593Z,101800.67
2018-09-12T23:56:38.611Z,101803.14
2018-09-12T23:59:07.565Z,101806.39
